createdAt,value
2018-06-13T00:01:15.511Z,15.60
2018-06-13T00:03:42.710Z,13.97
2018-06-13T00:06:09.921Z,13.73
2018-06-13T00:08:37.142Z,13.63
2018-06-13T00:11:04.361Z,13.93
2018-06-13T00:13:31.561Z,13.30
2018-06-13T00:15:58.770Z,11.93
2018-06-13T00:18:25.944Z,13.07
2018-06-13T00:20:53.121Z,13.80
2018-06-13T00:23:20.315Z,13.70
2018-06-13T00:25:47.517Z,13.40
2018-06-13T00:28:14.702Z,12.40
2018-06-13T00:30:41.882Z,13.33
2018-06-13T00:33:09.087Z,12.60
2018-06-13T00:35:36.257Z,14.73
2018-06-13T00:38:03.458Z,13.07
2018-06-13T00:40:30.639Z,14.73
2018-06-13T00:42:57.828Z,13.20
2018-06-13T00:45:25.026Z,15.03
2018-06-13T00:47:52.217Z,13.03
2018-06-13T00:50:19.388Z,14.70
2018-06-13T00:52:46.599Z,13.10
2018-06-13T00:55:13.785Z,14.43
2018-06-13T00:57:40.969Z,13.50
2018-06-13T01:00:08.149Z,14.43
2018-06-13T01:02:35.337Z,14.40
2018-06-13T01:05:02.560Z,14.30
2018-06-13T01:07:29.738Z,14.67
2018-06-13T01:09:56.922Z,14.63
2018-06-13T01:12:24.124Z,16.13
2018-06-13T01:14:51.313Z,16.50
2018-06-13T01:17:18.555Z,14.47
2018-06-13T01:19:45.833Z,15.07
2018-06-13T01:22:13.082Z,15.30
2018-06-13T01:24:46.144Z,14.20
2018-06-13T01:27:13.372Z,14.60
2018-06-13T01:29:40.602Z,12.70
2018-06-13T01:32:07.856Z,13.53
2018-06-13T01:34:35.084Z,14.73
2018-06-13T01:37:02.320Z,13.77
2018-06-13T01:39:29.577Z,15.53
2018-06-13T01:41:56.819Z,13.90
2018-06-13T01:44:24.094Z,13.70
2018-06-13T01:46:51.323Z,14.47
2018-06-13T01:49:18.555Z,14.00
2018-06-13T01:51:45.791Z,13.60
2018-06-13T01:54:13.033Z,12.87
2018-06-13T01:56:40.261Z,13.43
2018-06-13T01:59:07.511Z,13.73
2018-06-13T02:01:34.870Z,13.53
2018-06-13T02:04:02.099Z,12.30
2018-06-13T02:06:29.337Z,14.47
2018-06-13T02:08:56.576Z,14.00
2018-06-13T02:11:23.801Z,13.30
2018-06-13T02:13:51.052Z,13.30
2018-06-13T02:16:18.288Z,13.60
2018-06-13T02:18:45.533Z,13.43
2018-06-13T02:21:12.768Z,13.50
2018-06-13T02:23:40.005Z,12.10
2018-06-13T02:26:07.253Z,13.83
2018-06-13T02:28:34.488Z,13.60
2018-06-13T02:31:01.799Z,12.20
2018-06-13T02:33:29.037Z,13.57
2018-06-13T02:35:56.523Z,14.00
2018-06-13T02:38:23.904Z,12.03
2018-06-13T02:40:51.332Z,13.53
2018-06-13T02:43:18.693Z,12.30
2018-06-13T02:45:46.138Z,14.57
2018-06-13T02:48:13.388Z,14.17
2018-06-13T02:50:40.645Z,13.47
2018-06-13T02:53:07.909Z,14.63
2018-06-13T02:55:35.147Z,15.90
2018-06-13T02:58:02.374Z,14.80
2018-06-13T03:00:29.628Z,14.03
2018-06-13T03:02:56.858Z,14.40
2018-06-13T03:05:24.114Z,15.17
2018-06-13T03:07:51.429Z,14.10
2018-06-13T03:10:19.384Z,14.20
2018-06-13T03:12:46.665Z,14.87
2018-06-13T03:15:13.935Z,14.10
2018-06-13T03:17:41.195Z,14.30
2018-06-13T03:20:08.414Z,12.63
2018-06-13T03:22:35.644Z,15.30
2018-06-13T03:25:02.931Z,15.70
2018-06-13T03:27:30.176Z,15.77
2018-06-13T03:29:57.474Z,14.77
2018-06-13T03:32:24.705Z,14.40
2018-06-13T03:34:51.952Z,15.23
2018-06-13T03:37:19.227Z,13.90
2018-06-13T03:39:46.473Z,14.13
2018-06-13T03:42:13.721Z,15.60
2018-06-13T03:44:40.949Z,14.67
2018-06-13T03:47:08.189Z,15.50
2018-06-13T03:49:35.436Z,16.30
2018-06-13T03:52:02.685Z,14.90
2018-06-13T03:54:29.945Z,14.30
2018-06-13T03:56:57.233Z,16.00
2018-06-13T03:59:24.461Z,15.67
2018-06-13T04:01:51.743Z,13.90
2018-06-13T04:04:18.933Z,14.80
2018-06-13T04:06:46.169Z,13.50
2018-06-13T04:09:13.456Z,15.60
2018-06-13T04:11:40.681Z,15.90
2018-06-13T04:14:07.929Z,15.27
2018-06-13T04:16:35.164Z,16.40
2018-06-13T04:19:02.402Z,14.50
2018-06-13T04:21:29.650Z,13.43
2018-06-13T04:23:56.876Z,16.70
2018-06-13T04:26:24.110Z,15.20
2018-06-13T04:28:51.335Z,15.70
2018-06-13T04:31:18.564Z,14.87
2018-06-13T04:33:45.787Z,14.37
2018-06-13T04:36:13.017Z,15.50
2018-06-13T04:38:40.253Z,15.53
2018-06-13T04:41:07.485Z,15.30
2018-06-13T04:43:34.706Z,13.97
2018-06-13T04:46:01.928Z,15.03
2018-06-13T04:48:29.183Z,15.03
2018-06-13T04:50:56.402Z,15.60
2018-06-13T04:53:23.683Z,13.27
2018-06-13T04:55:50.917Z,14.80
2018-06-13T04:58:18.179Z,16.27
2018-06-13T05:00:45.384Z,14.50
2018-06-13T05:03:12.625Z,13.73
2018-06-13T05:05:39.857Z,14.10
2018-06-13T05:08:07.093Z,13.33
2018-06-13T05:10:34.316Z,13.17
2018-06-13T05:13:01.565Z,15.03
2018-06-13T05:15:28.803Z,14.70
2018-06-13T05:17:56.080Z,15.47
2018-06-13T05:20:23.315Z,13.47
2018-06-13T05:22:50.545Z,13.93
2018-06-13T05:25:17.762Z,13.00
2018-06-13T05:27:45.010Z,15.33
2018-06-13T05:30:12.250Z,14.30
2018-06-13T05:32:39.472Z,14.87
2018-06-13T05:35:06.705Z,13.97
2018-06-13T05:37:33.929Z,14.23
2018-06-13T05:40:01.153Z,13.33
2018-06-13T05:42:28.404Z,14.30
2018-06-13T05:44:55.628Z,15.60
2018-06-13T05:47:22.857Z,15.03
2018-06-13T05:49:50.113Z,13.43
2018-06-13T05:52:17.333Z,13.00
2018-06-13T05:54:44.553Z,13.97
2018-06-13T05:57:11.778Z,13.43
2018-06-13T05:59:39.026Z,12.80
2018-06-13T06:02:06.276Z,14.20
2018-06-13T06:04:33.500Z,14.60
2018-06-13T06:07:00.725Z,13.27
2018-06-13T06:09:27.956Z,13.60
2018-06-13T06:11:55.184Z,12.60
2018-06-13T06:14:22.421Z,13.47
2018-06-13T06:16:49.649Z,13.10
2018-06-13T06:19:16.901Z,11.23
2018-06-13T06:21:44.124Z,11.37
2018-06-13T06:24:11.345Z,12.93
2018-06-13T06:26:38.610Z,12.73
2018-06-13T06:29:05.861Z,12.27
2018-06-13T06:31:33.184Z,11.97
2018-06-13T06:34:00.398Z,12.90
2018-06-13T06:36:27.641Z,11.10
2018-06-13T06:38:54.882Z,11.40
2018-06-13T06:41:22.129Z,11.67
2018-06-13T06:43:49.361Z,11.57
2018-06-13T06:46:16.585Z,11.97
2018-06-13T06:48:43.821Z,14.23
2018-06-13T06:51:11.053Z,13.20
2018-06-13T06:53:38.308Z,11.13
2018-06-13T06:56:05.558Z,9.70
2018-06-13T06:58:32.788Z,10.23
2018-06-13T07:01:00.037Z,10.80
2018-06-13T07:03:27.266Z,9.13
2018-06-13T07:05:54.537Z,9.93
2018-06-13T07:08:21.761Z,8.27
2018-06-13T07:10:49.001Z,9.37
2018-06-13T07:13:16.257Z,9.07
2018-06-13T07:15:43.476Z,8.50
2018-06-13T07:18:10.714Z,8.40
2018-06-13T07:20:37.936Z,8.83
2018-06-13T07:23:05.177Z,8.40
2018-06-13T07:25:32.413Z,8.03
2018-06-13T07:27:59.641Z,8.17
2018-06-13T07:30:26.885Z,8.30
2018-06-13T07:32:54.118Z,7.03
2018-06-13T07:35:21.343Z,7.60
2018-06-13T07:37:48.576Z,6.87
2018-06-13T07:40:15.801Z,7.57
2018-06-13T07:42:43.030Z,6.23
2018-06-13T07:45:10.265Z,7.23
2018-06-13T07:47:37.492Z,7.23
2018-06-13T07:50:05.041Z,6.20
2018-06-13T07:52:32.276Z,6.90
2018-06-13T07:54:59.509Z,7.20
2018-06-13T07:57:26.778Z,5.47
2018-06-13T07:59:54.001Z,8.20
2018-06-13T08:02:21.325Z,6.90
2018-06-13T08:04:48.513Z,5.90
2018-06-13T08:07:15.734Z,7.13
2018-06-13T08:09:42.984Z,6.23
2018-06-13T08:12:10.223Z,6.70
2018-06-13T08:14:37.459Z,6.80
2018-06-13T08:17:04.709Z,6.40
2018-06-13T08:19:31.936Z,7.73
2018-06-13T08:21:59.168Z,7.50
2018-06-13T08:24:26.423Z,5.43
2018-06-13T08:26:53.792Z,6.03
2018-06-13T08:29:21.676Z,5.93
2018-06-13T08:31:49.220Z,6.90
2018-06-13T08:34:16.471Z,8.57
2018-06-13T08:36:43.716Z,7.77
2018-06-13T08:39:10.940Z,7.00
2018-06-13T08:41:38.192Z,8.00
2018-06-13T08:44:05.408Z,7.33
2018-06-13T08:46:32.664Z,6.33
2018-06-13T08:48:59.913Z,6.50
2018-06-13T08:51:27.154Z,7.07
2018-06-13T08:53:54.380Z,6.00
2018-06-13T08:56:21.617Z,5.83
2018-06-13T08:58:48.854Z,6.20
2018-06-13T09:01:16.081Z,7.67
2018-06-13T09:03:43.334Z,6.87
2018-06-13T09:06:10.585Z,6.47
2018-06-13T09:08:37.837Z,7.23
2018-06-13T09:11:05.056Z,6.87
2018-06-13T09:13:32.288Z,6.37
2018-06-13T09:15:59.513Z,6.93
2018-06-13T09:18:26.794Z,6.33
2018-06-13T09:20:54.027Z,7.40
2018-06-13T09:23:21.316Z,6.80
2018-06-13T09:25:48.544Z,7.10
2018-06-13T09:28:15.764Z,6.40
2018-06-13T09:30:42.993Z,5.40
2018-06-13T09:33:10.385Z,4.87
2018-06-13T09:35:37.614Z,5.50
2018-06-13T09:38:04.849Z,5.17
2018-06-13T09:40:32.084Z,5.30
2018-06-13T09:42:59.318Z,6.30
2018-06-13T09:45:26.544Z,5.67
2018-06-13T09:47:53.790Z,5.67
2018-06-13T09:50:21.090Z,6.23
2018-06-13T09:52:48.352Z,5.77
2018-06-13T09:55:15.567Z,6.43
2018-06-13T09:57:42.813Z,6.67
2018-06-13T10:00:15.692Z,6.30
2018-06-13T10:02:42.945Z,5.80
2018-06-13T10:05:10.188Z,5.70
2018-06-13T10:07:37.434Z,6.50
2018-06-13T10:10:04.728Z,5.47
2018-06-13T10:12:31.975Z,6.23
2018-06-13T10:14:59.213Z,5.30
2018-06-13T10:17:26.441Z,5.50
2018-06-13T10:19:53.676Z,4.87
2018-06-13T10:22:20.901Z,5.77
2018-06-13T10:24:48.128Z,6.10
2018-06-13T10:27:21.181Z,5.30
2018-06-13T10:29:48.422Z,4.93
2018-06-13T10:32:15.665Z,5.50
2018-06-13T10:34:42.901Z,5.40
2018-06-13T10:37:10.153Z,5.40
2018-06-13T10:39:37.434Z,5.63
2018-06-13T10:42:04.669Z,5.67
2018-06-13T10:44:31.908Z,5.73
2018-06-13T10:46:59.146Z,5.27
2018-06-13T10:49:26.372Z,5.13
2018-06-13T10:51:53.637Z,4.57
2018-06-13T10:54:20.865Z,4.90
2018-06-13T10:56:48.093Z,4.73
2018-06-13T10:59:15.321Z,5.03
2018-06-13T11:01:42.576Z,5.80
2018-06-13T11:04:09.807Z,5.43
2018-06-13T11:06:37.037Z,4.10
2018-06-13T11:09:07.061Z,4.47
2018-06-13T11:11:34.349Z,4.50
2018-06-13T11:14:01.876Z,4.40
2018-06-13T11:16:29.112Z,4.67
2018-06-13T11:18:56.361Z,4.60
2018-06-13T11:21:23.600Z,4.63
2018-06-13T11:23:50.820Z,4.77
2018-06-13T11:26:18.051Z,5.63
2018-06-13T11:28:45.276Z,4.83
2018-06-13T11:31:12.836Z,4.47
2018-06-13T11:33:40.066Z,4.90
2018-06-13T11:36:07.300Z,6.20
2018-06-13T11:38:34.525Z,4.87
2018-06-13T11:41:01.772Z,4.03
2018-06-13T11:43:29.005Z,4.93
2018-06-13T11:45:56.301Z,4.67
2018-06-13T11:48:23.695Z,4.47
2018-06-13T11:50:50.964Z,4.63
2018-06-13T11:53:18.146Z,3.50
2018-06-13T11:55:45.378Z,4.03
2018-06-13T11:58:12.873Z,4.20
2018-06-13T12:00:40.145Z,4.50
2018-06-13T12:03:07.393Z,4.50
2018-06-13T12:05:34.652Z,4.70
2018-06-13T12:08:01.874Z,4.47
2018-06-13T12:10:29.126Z,4.50
2018-06-13T12:12:56.369Z,3.77
2018-06-13T12:15:23.618Z,4.57
2018-06-13T12:17:50.844Z,4.13
2018-06-13T12:20:18.081Z,4.60
2018-06-13T12:22:45.366Z,3.50
2018-06-13T12:25:12.607Z,3.67
2018-06-13T12:27:39.836Z,4.40
2018-06-13T12:30:07.080Z,4.77
2018-06-13T12:32:34.314Z,5.60
2018-06-13T12:35:01.551Z,4.60
2018-06-13T12:37:28.781Z,4.53
2018-06-13T12:39:56.029Z,3.93
2018-06-13T12:42:23.273Z,4.10
2018-06-13T12:44:50.509Z,3.90
2018-06-13T12:47:17.744Z,4.27
2018-06-13T12:49:44.985Z,4.20
2018-06-13T12:52:12.254Z,4.00
2018-06-13T12:54:39.522Z,3.70
2018-06-13T12:57:06.757Z,4.43
2018-06-13T12:59:35.269Z,4.17
2018-06-13T13:02:02.510Z,3.77
2018-06-13T13:04:29.733Z,3.27
2018-06-13T13:06:57.029Z,3.40
2018-06-13T13:09:24.265Z,3.10
2018-06-13T13:11:51.518Z,3.20
2018-06-13T13:14:18.755Z,3.13
2018-06-13T13:16:45.998Z,3.07
2018-06-13T13:19:13.221Z,2.80
2018-06-13T13:21:40.446Z,2.37
2018-06-13T13:24:07.686Z,2.80
2018-06-13T13:26:34.923Z,3.40
2018-06-13T13:29:02.484Z,2.93
2018-06-13T13:31:29.709Z,2.60
2018-06-13T13:33:56.947Z,2.77
2018-06-13T13:36:24.185Z,2.80
2018-06-13T13:38:51.417Z,2.90
2018-06-13T13:41:18.700Z,3.70
2018-06-13T13:43:45.949Z,3.47
2018-06-13T13:46:13.174Z,3.10
2018-06-13T13:48:40.400Z,3.20
2018-06-13T13:51:07.632Z,2.83
2018-06-13T13:53:34.857Z,4.23
2018-06-13T13:56:02.080Z,3.70
2018-06-13T13:58:29.316Z,3.73
2018-06-13T14:00:56.558Z,3.20
2018-06-13T14:03:23.827Z,4.30
2018-06-13T14:05:51.056Z,3.63
2018-06-13T14:08:18.328Z,3.57
2018-06-13T14:10:45.555Z,3.10
2018-06-13T14:13:12.793Z,3.10
2018-06-13T14:15:40.042Z,22.80
2018-06-13T14:18:07.300Z,14.80
2018-06-13T14:20:34.530Z,4.10
2018-06-13T14:23:01.769Z,3.67
2018-06-13T14:25:29.010Z,3.80
2018-06-13T14:27:56.241Z,3.03
2018-06-13T14:30:23.489Z,3.47
2018-06-13T14:32:50.727Z,3.40
2018-06-13T14:35:17.972Z,3.30
2018-06-13T14:37:45.217Z,3.10
2018-06-13T14:40:12.464Z,3.47
2018-06-13T14:42:39.720Z,2.80
2018-06-13T14:45:07.082Z,3.70
2018-06-13T14:47:34.276Z,2.87
2018-06-13T14:50:01.622Z,3.33
2018-06-13T14:52:28.930Z,3.40
2018-06-13T14:54:56.604Z,3.33
2018-06-13T14:57:23.842Z,3.30
2018-06-13T14:59:51.085Z,3.23
2018-06-13T15:02:18.307Z,3.37
2018-06-13T15:04:45.537Z,3.43
2018-06-13T15:07:12.773Z,2.97
2018-06-13T15:09:40.107Z,2.87
2018-06-13T15:12:07.339Z,2.33
2018-06-13T15:14:34.571Z,2.53
2018-06-13T15:17:01.826Z,4.50
2018-06-13T15:19:29.041Z,2.70
2018-06-13T15:21:56.345Z,2.50
2018-06-13T15:24:23.581Z,3.10
2018-06-13T15:26:50.834Z,2.87
2018-06-13T15:29:18.111Z,2.47
2018-06-13T15:31:45.344Z,2.87
2018-06-13T15:34:12.630Z,2.83
2018-06-13T15:36:39.917Z,3.10
2018-06-13T15:39:09.089Z,3.67
2018-06-13T15:41:36.341Z,2.80
2018-06-13T15:44:03.637Z,3.40
2018-06-13T15:46:30.869Z,3.30
2018-06-13T15:48:58.173Z,3.63
2018-06-13T15:51:25.403Z,2.97
2018-06-13T15:53:52.661Z,2.90
2018-06-13T15:56:19.897Z,2.73
2018-06-13T15:58:47.130Z,2.40
2018-06-13T16:01:14.365Z,2.30
2018-06-13T16:03:41.648Z,2.37
2018-06-13T16:06:08.935Z,2.73
2018-06-13T16:08:36.173Z,2.60
2018-06-13T16:11:03.473Z,2.47
2018-06-13T16:13:30.749Z,3.00
2018-06-13T16:15:58.098Z,3.07
2018-06-13T16:18:25.359Z,2.80
2018-06-13T16:20:52.642Z,3.03
2018-06-13T16:23:19.879Z,3.27
2018-06-13T16:25:47.127Z,2.80
2018-06-13T16:28:14.348Z,3.30
2018-06-13T16:30:41.583Z,3.10
2018-06-13T16:33:08.824Z,2.90
2018-06-13T16:35:36.089Z,2.63
2018-06-13T16:38:03.360Z,2.93
2018-06-13T16:40:30.604Z,2.73
2018-06-13T16:42:57.857Z,3.20
2018-06-13T16:45:25.100Z,2.90
2018-06-13T16:47:52.405Z,2.70
2018-06-13T16:50:30.961Z,2.50
2018-06-13T16:53:08.880Z,2.53
2018-06-13T16:55:36.162Z,3.13
2018-06-13T16:58:03.817Z,2.93
2018-06-13T17:00:31.048Z,3.43
2018-06-13T17:02:58.307Z,3.10
2018-06-13T17:05:25.576Z,3.57
2018-06-13T17:07:52.974Z,3.20
2018-06-13T17:10:20.230Z,3.60
2018-06-13T17:12:47.615Z,3.43
2018-06-13T17:15:14.909Z,2.90
2018-06-13T17:17:42.154Z,3.50
2018-06-13T17:20:09.368Z,3.13
2018-06-13T17:22:36.616Z,2.73
2018-06-13T17:25:03.917Z,3.80
2018-06-13T17:27:31.179Z,3.47
2018-06-13T17:29:58.401Z,3.00
2018-06-13T17:32:25.785Z,3.90
2018-06-13T17:34:53.133Z,3.53
2018-06-13T17:37:20.373Z,3.27
2018-06-13T17:39:47.668Z,4.40
2018-06-13T17:42:14.916Z,3.50
2018-06-13T17:44:42.145Z,3.40
2018-06-13T17:47:09.370Z,3.97
2018-06-13T17:49:36.592Z,4.20
2018-06-13T17:52:03.862Z,3.30
2018-06-13T17:54:31.092Z,3.70
2018-06-13T17:56:58.378Z,3.10
2018-06-13T17:59:25.885Z,2.57
2018-06-13T18:01:53.197Z,3.27
2018-06-13T18:04:20.439Z,3.03
2018-06-13T18:06:47.760Z,2.70
2018-06-13T18:09:15.117Z,3.20
2018-06-13T18:11:42.529Z,3.00
2018-06-13T18:14:09.828Z,2.97
2018-06-13T18:16:37.056Z,2.90
2018-06-13T18:19:04.609Z,2.53
2018-06-13T18:21:32.049Z,3.63
2018-06-13T18:23:59.362Z,2.83
2018-06-13T18:26:26.564Z,3.47
2018-06-13T18:28:53.792Z,3.20
2018-06-13T18:31:21.006Z,2.60
2018-06-13T18:33:48.253Z,3.10
2018-06-13T18:36:15.566Z,3.20
2018-06-13T18:38:43.600Z,3.27
2018-06-13T18:41:11.252Z,4.07
2018-06-13T18:43:38.663Z,3.63
2018-06-13T18:46:05.985Z,3.40
2018-06-13T18:48:33.306Z,3.67
2018-06-13T18:51:00.573Z,3.43
2018-06-13T18:53:27.897Z,4.03
2018-06-13T18:55:55.613Z,3.40
2018-06-13T18:58:22.972Z,3.50
2018-06-13T19:00:51.134Z,3.77
2018-06-13T19:03:18.382Z,3.43
2018-06-13T19:05:46.158Z,3.37
2018-06-13T19:08:13.430Z,3.60
2018-06-13T19:10:40.729Z,3.40
2018-06-13T19:13:07.964Z,3.70
2018-06-13T19:15:35.210Z,3.83
2018-06-13T19:18:02.493Z,3.90
2018-06-13T19:20:30.006Z,3.83
2018-06-13T19:22:57.257Z,3.63
2018-06-13T19:25:24.496Z,3.90
2018-06-13T19:27:51.733Z,3.90
2018-06-13T19:30:19.451Z,4.60
2018-06-13T19:32:46.688Z,4.53
2018-06-13T19:35:13.933Z,3.90
2018-06-13T19:37:41.162Z,4.23
2018-06-13T19:40:08.388Z,4.17
2018-06-13T19:42:35.629Z,4.10
2018-06-13T19:45:02.929Z,4.80
2018-06-13T19:47:36.004Z,4.20
2018-06-13T19:50:03.369Z,4.53
2018-06-13T19:52:36.457Z,3.70
2018-06-13T19:55:09.454Z,4.53
2018-06-13T19:57:36.700Z,3.60
2018-06-13T20:00:03.978Z,4.40
2018-06-13T20:02:37.096Z,5.13
2018-06-13T20:05:10.109Z,4.73
2018-06-13T20:07:37.365Z,4.10
2018-06-13T20:10:21.440Z,4.37
2018-06-13T20:12:54.320Z,4.40
2018-06-13T20:15:27.326Z,4.57
2018-06-13T20:18:00.438Z,3.70
2018-06-13T20:20:27.681Z,4.73
2018-06-13T20:22:54.939Z,4.50
2018-06-13T20:25:27.894Z,4.67
2018-06-13T20:28:00.936Z,4.70
2018-06-13T20:30:33.953Z,4.90
2018-06-13T20:33:01.194Z,4.30
2018-06-13T20:35:28.430Z,4.90
2018-06-13T20:37:55.665Z,4.97
2018-06-13T20:40:22.896Z,5.20
2018-06-13T20:42:50.124Z,4.23
2018-06-13T20:45:17.363Z,4.63
2018-06-13T20:47:44.602Z,4.50
2018-06-13T20:50:11.846Z,4.87
2018-06-13T20:52:39.077Z,4.30
2018-06-13T20:55:06.316Z,5.33
2018-06-13T20:57:33.554Z,5.60
2018-06-13T21:00:00.775Z,5.10
2018-06-13T21:02:28.033Z,5.20
2018-06-13T21:04:55.497Z,5.23
2018-06-13T21:07:22.777Z,5.17
2018-06-13T21:09:49.995Z,5.27
2018-06-13T21:12:17.220Z,5.10
2018-06-13T21:14:44.475Z,5.87
2018-06-13T21:17:11.732Z,4.40
2018-06-13T21:19:39.081Z,5.40
2018-06-13T21:22:06.305Z,6.03
2018-06-13T21:24:33.541Z,5.80
2018-06-13T21:27:00.882Z,5.40
2018-06-13T21:29:28.121Z,4.97
2018-06-13T21:31:55.358Z,5.77
2018-06-13T21:34:22.609Z,4.93
2018-06-13T21:36:49.844Z,5.47
2018-06-13T21:39:17.070Z,4.90
2018-06-13T21:41:44.310Z,4.27
2018-06-13T21:44:11.541Z,5.63
2018-06-13T21:46:38.763Z,5.73
2018-06-13T21:49:06.016Z,4.87
2018-06-13T21:51:33.268Z,5.57
2018-06-13T21:54:00.515Z,5.07
2018-06-13T21:56:27.740Z,5.80
2018-06-13T21:58:55.007Z,5.10
2018-06-13T22:01:22.265Z,5.13
2018-06-13T22:03:49.545Z,5.87
2018-06-13T22:06:16.765Z,5.33
2018-06-13T22:08:43.998Z,5.07
2018-06-13T22:11:11.234Z,4.40
2018-06-13T22:13:38.491Z,4.40
2018-06-13T22:16:05.741Z,5.93
2018-06-13T22:18:33.000Z,5.60
2018-06-13T22:21:00.232Z,4.60
2018-06-13T22:23:27.464Z,5.23
2018-06-13T22:25:54.696Z,5.93
2018-06-13T22:28:22.077Z,5.27
2018-06-13T22:30:49.409Z,5.20
2018-06-13T22:33:16.641Z,6.20
2018-06-13T22:35:43.862Z,6.37
2018-06-13T22:38:11.088Z,5.70
2018-06-13T22:40:38.348Z,5.43
2018-06-13T22:43:05.598Z,6.37
2018-06-13T22:45:32.840Z,6.00
2018-06-13T22:48:00.074Z,6.53
2018-06-13T22:50:27.318Z,6.00
2018-06-13T22:52:54.564Z,6.23
2018-06-13T22:55:21.789Z,5.20
2018-06-13T22:57:49.012Z,5.77
2018-06-13T23:00:27.381Z,5.90
2018-06-13T23:02:54.625Z,6.40
2018-06-13T23:05:21.877Z,6.13
2018-06-13T23:07:49.138Z,6.03
2018-06-13T23:10:16.400Z,5.53
2018-06-13T23:12:43.625Z,6.50
2018-06-13T23:15:10.870Z,6.30
2018-06-13T23:17:38.100Z,5.97
2018-06-13T23:20:05.349Z,6.00
2018-06-13T23:22:32.573Z,7.00
2018-06-13T23:24:59.792Z,6.40
2018-06-13T23:27:27.040Z,6.70
2018-06-13T23:29:54.281Z,5.80
2018-06-13T23:32:21.506Z,6.67
2018-06-13T23:34:48.757Z,5.90
2018-06-13T23:37:15.973Z,6.60
2018-06-13T23:39:43.217Z,6.30
2018-06-13T23:42:10.459Z,6.90
2018-06-13T23:44:37.697Z,7.10
2018-06-13T23:47:04.945Z,6.90
2018-06-13T23:49:32.173Z,6.23
2018-06-13T23:51:59.492Z,6.53
2018-06-13T23:54:26.733Z,6.30
2018-06-13T23:56:53.968Z,7.80
2018-06-13T23:59:21.200Z,6.93
